createdAt,value
2018-06-17T00:00:48.338Z,6.60
2018-06-17T00:03:16.948Z,7.57
2018-06-17T00:05:46.025Z,7.17
2018-06-17T00:08:14.847Z,7.47
2018-06-17T00:10:42.960Z,7.87
2018-06-17T00:13:11.195Z,6.40
2018-06-17T00:15:39.253Z,7.60
2018-06-17T00:18:07.308Z,6.03
2018-06-17T00:20:35.352Z,7.03
2018-06-17T00:23:03.417Z,6.40
2018-06-17T00:25:31.445Z,6.07
2018-06-17T00:27:59.500Z,6.20
2018-06-17T00:30:27.529Z,6.57
2018-06-17T00:32:55.589Z,6.07
2018-06-17T00:35:23.631Z,5.90
2018-06-17T00:37:51.685Z,7.03
2018-06-17T00:40:19.794Z,6.97
2018-06-17T00:42:48.762Z,6.93
2018-06-17T00:45:17.744Z,6.90
2018-06-17T00:47:46.905Z,6.23
2018-06-17T00:50:15.717Z,6.27
2018-06-17T00:52:43.873Z,5.93
2018-06-17T00:55:12.036Z,5.57
2018-06-17T00:57:46.260Z,6.03
2018-06-17T01:00:14.747Z,5.90
2018-06-17T01:02:43.120Z,5.47
2018-06-17T01:05:11.189Z,5.70
2018-06-17T01:07:39.231Z,5.20
2018-06-17T01:10:07.324Z,5.60
2018-06-17T01:12:35.429Z,4.97
2018-06-17T01:15:03.573Z,5.47
2018-06-17T01:17:31.645Z,5.00
2018-06-17T01:19:59.744Z,5.20
2018-06-17T01:22:27.798Z,5.00
2018-06-17T01:24:55.878Z,4.47
2018-06-17T01:27:23.917Z,5.07
2018-06-17T01:29:51.969Z,4.80
2018-06-17T01:32:20.129Z,4.60
2018-06-17T01:34:49.017Z,5.20
2018-06-17T01:37:18.182Z,5.10
2018-06-17T01:39:46.967Z,4.70
2018-06-17T01:42:15.142Z,4.50
2018-06-17T01:44:43.364Z,4.60
2018-06-17T01:47:11.387Z,4.17
2018-06-17T01:49:39.441Z,4.90
2018-06-17T01:52:07.476Z,3.87
2018-06-17T01:54:35.538Z,4.10
2018-06-17T01:57:03.629Z,4.47
2018-06-17T01:59:31.698Z,5.10
2018-06-17T02:01:59.748Z,4.80
2018-06-17T02:04:33.282Z,4.40
2018-06-17T02:07:07.197Z,5.53
2018-06-17T02:09:40.581Z,4.17
2018-06-17T02:12:13.912Z,4.30
2018-06-17T02:14:47.317Z,3.77
2018-06-17T02:17:15.438Z,4.70
2018-06-17T02:19:43.524Z,5.03
2018-06-17T02:22:11.564Z,4.87
2018-06-17T02:24:39.631Z,4.20
2018-06-17T02:27:07.759Z,4.33
2018-06-17T02:29:35.848Z,4.30
2018-06-17T02:32:04.114Z,4.03
2018-06-17T02:34:33.095Z,3.70
2018-06-17T02:37:02.548Z,4.27
2018-06-17T02:39:31.260Z,4.03
2018-06-17T02:41:59.296Z,3.43
2018-06-17T02:44:27.521Z,3.47
2018-06-17T02:47:01.428Z,3.73
2018-06-17T02:49:35.792Z,3.27
2018-06-17T02:52:09.416Z,3.80
2018-06-17T02:54:39.989Z,4.37
2018-06-17T02:57:08.897Z,5.03
2018-06-17T02:59:37.081Z,3.50
2018-06-17T03:02:05.242Z,3.33
2018-06-17T03:04:33.872Z,3.40
2018-06-17T03:07:03.376Z,3.63
2018-06-17T03:09:32.338Z,4.10
2018-06-17T03:12:00.927Z,3.67
2018-06-17T03:14:29.109Z,3.87
2018-06-17T03:16:57.348Z,3.40
2018-06-17T03:19:25.372Z,4.23
2018-06-17T03:21:53.434Z,4.10
2018-06-17T03:24:26.900Z,4.07
2018-06-17T03:27:00.320Z,3.77
2018-06-17T03:29:34.205Z,3.60
2018-06-17T03:32:08.061Z,3.80
2018-06-17T03:34:36.105Z,4.10
2018-06-17T03:37:04.917Z,3.33
2018-06-17T03:39:33.809Z,4.20
2018-06-17T03:42:02.524Z,3.60
2018-06-17T03:44:30.643Z,3.43
2018-06-17T03:46:58.848Z,3.97
2018-06-17T03:49:26.893Z,3.90
2018-06-17T03:51:54.944Z,3.90
2018-06-17T03:54:22.974Z,3.80
2018-06-17T03:56:51.033Z,3.60
2018-06-17T03:59:19.109Z,3.70
2018-06-17T04:01:47.204Z,4.30
2018-06-17T04:04:15.226Z,3.83
2018-06-17T04:06:43.257Z,3.83
2018-06-17T04:09:11.256Z,4.00
2018-06-17T04:11:39.311Z,3.20
2018-06-17T04:14:07.338Z,4.23
2018-06-17T04:16:35.731Z,3.50
2018-06-17T04:19:04.803Z,3.43
2018-06-17T04:21:33.776Z,3.60
2018-06-17T04:24:02.452Z,3.70
2018-06-17T04:26:30.684Z,3.90
2018-06-17T04:28:58.799Z,3.93
2018-06-17T04:31:26.862Z,5.37
2018-06-17T04:33:54.883Z,3.80
2018-06-17T04:36:22.934Z,3.80
2018-06-17T04:38:50.974Z,3.60
2018-06-17T04:41:18.996Z,4.47
2018-06-17T04:43:47.051Z,3.43
2018-06-17T04:46:15.073Z,3.67
2018-06-17T04:48:43.205Z,3.27
2018-06-17T04:51:11.230Z,3.10
2018-06-17T04:53:39.287Z,3.93
2018-06-17T04:56:07.484Z,2.80
2018-06-17T04:58:36.102Z,3.43
2018-06-17T05:01:05.067Z,3.20
2018-06-17T05:03:33.864Z,3.40
2018-06-17T05:06:02.039Z,5.20
2018-06-17T05:08:30.227Z,3.03
2018-06-17T05:10:58.260Z,4.30
2018-06-17T05:13:26.315Z,3.10
2018-06-17T05:15:54.332Z,3.97
2018-06-17T05:18:22.386Z,3.60
2018-06-17T05:20:50.425Z,3.80
2018-06-17T05:23:18.479Z,3.80
2018-06-17T05:25:46.493Z,3.63
2018-06-17T05:28:14.552Z,3.37
2018-06-17T05:30:42.612Z,3.30
2018-06-17T05:33:10.648Z,3.87
2018-06-17T05:35:38.664Z,3.60
2018-06-17T05:38:07.388Z,3.50
2018-06-17T05:40:36.302Z,3.97
2018-06-17T05:43:05.264Z,3.90
2018-06-17T05:45:34.054Z,3.40
2018-06-17T05:48:02.461Z,3.20
2018-06-17T05:50:30.613Z,3.70
2018-06-17T05:52:58.664Z,3.37
2018-06-17T05:55:26.681Z,3.07
2018-06-17T05:57:54.733Z,4.10
2018-06-17T06:00:22.787Z,3.40
2018-06-17T06:02:50.830Z,3.97
2018-06-17T06:05:18.845Z,3.80
2018-06-17T06:07:46.896Z,3.70
2018-06-17T06:10:14.994Z,4.27
2018-06-17T06:12:43.052Z,4.47
2018-06-17T06:15:11.100Z,4.00
2018-06-17T06:17:39.126Z,3.80
2018-06-17T06:20:08.029Z,4.57
2018-06-17T06:22:37.109Z,3.80
2018-06-17T06:25:06.057Z,5.13
2018-06-17T06:27:34.968Z,4.23
2018-06-17T06:30:03.233Z,4.00
2018-06-17T06:32:31.320Z,4.30
2018-06-17T06:34:59.389Z,3.83
2018-06-17T06:37:27.410Z,4.10
2018-06-17T06:39:55.459Z,3.50
2018-06-17T06:42:23.482Z,3.50
2018-06-17T06:44:51.544Z,4.10
2018-06-17T06:47:19.586Z,4.17
2018-06-17T06:49:47.731Z,4.70
2018-06-17T06:52:15.765Z,3.70
2018-06-17T06:54:43.845Z,4.40
2018-06-17T06:57:11.893Z,4.23
2018-06-17T06:59:39.968Z,4.57
2018-06-17T07:02:13.570Z,4.90
2018-06-17T07:04:47.120Z,4.10
2018-06-17T07:07:20.499Z,4.17
2018-06-17T07:09:54.139Z,5.53
2018-06-17T07:12:22.168Z,4.37
2018-06-17T07:14:50.224Z,4.60
2018-06-17T07:17:23.783Z,4.90
2018-06-17T07:19:51.831Z,4.57
2018-06-17T07:22:19.675Z,4.60
2018-06-17T07:24:47.515Z,4.53
2018-06-17T07:27:20.714Z,3.17
2018-06-17T07:29:48.562Z,3.77
2018-06-17T07:32:16.372Z,3.90
2018-06-17T07:34:44.212Z,4.33
2018-06-17T07:37:12.056Z,3.67
2018-06-17T07:40:13.824Z,3.17
2018-06-17T07:42:41.650Z,3.50
2018-06-17T07:45:09.894Z,3.50
2018-06-17T07:47:38.606Z,3.50
2018-06-17T07:50:12.245Z,3.63
2018-06-17T07:52:45.698Z,4.20
2018-06-17T07:55:13.565Z,3.93
2018-06-17T07:57:41.382Z,3.60
2018-06-17T08:00:09.737Z,3.33
2018-06-17T08:02:38.594Z,3.27
2018-06-17T08:05:06.980Z,3.00
2018-06-17T08:07:35.407Z,3.17
2018-06-17T08:10:03.386Z,2.93
2018-06-17T08:12:31.323Z,4.17
2018-06-17T08:14:59.143Z,3.17
2018-06-17T08:17:26.997Z,3.03
2018-06-17T08:19:54.827Z,3.07
2018-06-17T08:22:22.673Z,2.90
2018-06-17T08:24:50.502Z,3.00
2018-06-17T08:27:18.371Z,2.83
2018-06-17T08:29:46.194Z,3.10
2018-06-17T08:32:14.045Z,2.80
2018-06-17T08:34:41.855Z,2.87
2018-06-17T08:37:10.320Z,3.07
2018-06-17T08:39:39.220Z,2.20
2018-06-17T08:42:07.645Z,3.40
2018-06-17T08:44:35.606Z,3.07
2018-06-17T08:47:03.464Z,2.70
2018-06-17T08:49:31.273Z,3.77
2018-06-17T08:51:59.104Z,2.70
2018-06-17T08:54:26.921Z,3.47
2018-06-17T08:56:54.762Z,2.50
2018-06-17T08:59:22.578Z,3.40
2018-06-17T09:01:50.441Z,2.77
2018-06-17T09:04:18.260Z,3.10
2018-06-17T09:06:46.119Z,2.37
2018-06-17T09:09:14.033Z,2.93
2018-06-17T09:11:41.857Z,3.50
2018-06-17T09:14:09.695Z,3.57
2018-06-17T09:16:37.565Z,3.03
2018-06-17T09:19:05.486Z,2.83
2018-06-17T09:21:33.384Z,2.37
2018-06-17T09:24:02.186Z,3.17
2018-06-17T09:26:31.022Z,2.70
2018-06-17T09:28:59.472Z,2.93
2018-06-17T09:31:27.442Z,3.20
2018-06-17T09:33:55.323Z,2.20
2018-06-17T09:36:23.224Z,2.97
2018-06-17T09:38:51.060Z,3.80
2018-06-17T09:41:18.916Z,3.20
2018-06-17T09:43:46.756Z,2.53
2018-06-17T09:46:14.584Z,2.70
2018-06-17T09:48:42.429Z,3.03
2018-06-17T09:51:11.972Z,3.17
2018-06-17T09:53:40.157Z,2.67
2018-06-17T09:56:08.142Z,2.83
2018-06-17T09:58:38.705Z,2.67
2018-06-17T10:01:06.948Z,3.00
2018-06-17T10:03:34.801Z,3.27
2018-06-17T10:06:02.970Z,3.07
2018-06-17T10:08:31.669Z,2.20
2018-06-17T10:11:04.383Z,2.83
2018-06-17T10:13:47.404Z,3.17
2018-06-17T10:16:16.070Z,2.65
2018-06-17T10:18:44.365Z,3.30
2018-06-17T10:21:12.430Z,3.37
2018-06-17T10:23:40.505Z,3.10
2018-06-17T10:26:08.519Z,2.70
2018-06-17T10:28:36.693Z,3.10
2018-06-17T10:31:06.008Z,2.47
2018-06-17T10:33:34.737Z,3.17
2018-06-17T10:36:03.568Z,2.70
2018-06-17T10:38:32.562Z,3.63
2018-06-17T10:41:01.169Z,3.03
2018-06-17T10:43:30.994Z,3.93
2018-06-17T10:45:59.208Z,3.03
2018-06-17T10:48:27.336Z,3.40
2018-06-17T10:50:55.398Z,3.27
2018-06-17T10:53:23.425Z,3.47
2018-06-17T10:55:51.675Z,3.00
2018-06-17T10:58:19.728Z,2.97
2018-06-17T11:00:47.814Z,3.67
2018-06-17T11:03:15.852Z,3.40
2018-06-17T11:05:44.185Z,3.17
2018-06-17T11:08:12.172Z,2.80
2018-06-17T11:10:40.217Z,3.57
2018-06-17T11:13:08.241Z,3.30
2018-06-17T11:15:36.299Z,3.27
2018-06-17T11:18:04.437Z,3.10
2018-06-17T11:20:32.564Z,3.90
2018-06-17T11:23:00.672Z,4.03
2018-06-17T11:25:28.727Z,3.97
2018-06-17T11:27:56.753Z,3.70
2018-06-17T11:30:24.784Z,3.50
2018-06-17T11:32:52.803Z,2.93
2018-06-17T11:35:20.856Z,2.73
2018-06-17T11:37:48.877Z,3.20
2018-06-17T11:40:16.972Z,3.40
2018-06-17T11:42:44.988Z,4.53
2018-06-17T11:45:13.036Z,3.30
2018-06-17T11:47:41.049Z,3.37
2018-06-17T11:50:09.100Z,2.83
2018-06-17T11:52:37.118Z,3.50
2018-06-17T11:55:05.383Z,3.07
2018-06-17T11:57:34.198Z,5.43
2018-06-17T12:00:02.396Z,4.90
2018-06-17T12:02:30.481Z,2.43
2018-06-17T12:04:58.545Z,3.50
2018-06-17T12:07:26.562Z,2.80
2018-06-17T12:09:54.610Z,3.63
2018-06-17T12:12:22.638Z,2.80
2018-06-17T12:14:50.661Z,2.93
2018-06-17T12:17:18.712Z,2.40
2018-06-17T12:19:46.766Z,2.90
2018-06-17T12:22:14.820Z,3.07
2018-06-17T12:24:42.824Z,3.60
2018-06-17T12:27:10.869Z,3.10
2018-06-17T12:29:38.884Z,2.90
2018-06-17T12:32:06.929Z,2.80
2018-06-17T12:34:35.023Z,3.00
2018-06-17T12:37:03.463Z,2.73
2018-06-17T12:39:31.579Z,2.80
2018-06-17T12:41:59.632Z,2.80
2018-06-17T12:44:27.667Z,3.80
2018-06-17T12:46:55.704Z,3.20
2018-06-17T12:49:23.838Z,3.20
2018-06-17T12:51:52.026Z,3.30
2018-06-17T12:54:20.182Z,2.83
2018-06-17T12:56:48.364Z,3.37
2018-06-17T12:59:16.464Z,3.40
2018-06-17T13:01:44.757Z,3.40
2018-06-17T13:04:12.792Z,2.80
2018-06-17T13:06:40.864Z,3.63
2018-06-17T13:09:10.029Z,3.47
2018-06-17T13:11:38.105Z,2.70
2018-06-17T13:14:06.299Z,3.63
2018-06-17T13:16:37.197Z,3.80
2018-06-17T13:19:05.781Z,3.10
2018-06-17T13:21:33.904Z,2.77
2018-06-17T13:24:01.934Z,3.07
2018-06-17T13:26:29.985Z,3.87
2018-06-17T13:28:58.012Z,3.13
2018-06-17T13:31:26.053Z,3.20
2018-06-17T13:33:54.160Z,3.43
2018-06-17T13:36:22.193Z,3.47
2018-06-17T13:38:50.258Z,3.37
2018-06-17T13:41:18.293Z,3.33
2018-06-17T13:43:46.339Z,3.50
2018-06-17T13:46:14.378Z,3.30
2018-06-17T13:48:42.433Z,3.97
2018-06-17T13:51:10.493Z,4.33
2018-06-17T13:53:38.561Z,3.90
2018-06-17T13:56:06.612Z,3.13
2018-06-17T13:58:34.712Z,3.53
2018-06-17T14:01:02.832Z,3.80
2018-06-17T14:03:30.893Z,3.57
2018-06-17T14:05:58.907Z,3.63
2018-06-17T14:08:26.945Z,3.97
2018-06-17T14:10:55.421Z,3.50
2018-06-17T14:13:23.468Z,3.37
2018-06-17T14:15:51.517Z,3.93
2018-06-17T14:18:19.712Z,2.60
2018-06-17T14:20:47.775Z,3.30
2018-06-17T14:23:15.829Z,3.10
2018-06-17T14:25:43.939Z,2.80
2018-06-17T14:28:11.972Z,2.60
2018-06-17T14:30:40.006Z,3.57
2018-06-17T14:33:08.150Z,2.57
2018-06-17T14:35:36.211Z,2.67
2018-06-17T14:38:04.396Z,3.20
2018-06-17T14:40:37.519Z,3.50
2018-06-17T14:43:10.847Z,2.97
2018-06-17T14:45:44.036Z,2.90
2018-06-17T14:50:19.355Z,2.53
2018-06-17T14:52:52.743Z,2.77
2018-06-17T14:55:20.810Z,2.70
2018-06-17T14:57:48.825Z,2.43
2018-06-17T15:00:16.891Z,2.80
2018-06-17T15:02:44.978Z,2.90
2018-06-17T15:05:13.029Z,2.50
2018-06-17T15:07:41.059Z,2.90
2018-06-17T15:10:09.132Z,3.70
2018-06-17T15:12:37.623Z,2.30
2018-06-17T15:15:06.547Z,3.00
2018-06-17T15:17:35.656Z,2.93
2018-06-17T15:20:04.464Z,3.47
2018-06-17T15:22:32.640Z,3.03
2018-06-17T15:25:01.884Z,3.20
2018-06-17T15:27:29.924Z,3.20
2018-06-17T15:29:58.912Z,3.03
2018-06-17T15:32:32.381Z,2.60
2018-06-17T15:35:05.997Z,3.43
2018-06-17T15:37:39.529Z,3.37
2018-06-17T15:40:07.797Z,3.83
2018-06-17T15:42:36.791Z,2.97
2018-06-17T15:45:05.656Z,3.17
2018-06-17T15:47:34.344Z,2.63
2018-06-17T15:50:02.582Z,3.70
2018-06-17T15:52:30.696Z,2.90
2018-06-17T15:54:58.747Z,3.20
2018-06-17T15:57:26.785Z,3.00
2018-06-17T15:59:55.235Z,3.47
2018-06-17T16:02:23.277Z,3.23
2018-06-17T16:04:51.341Z,3.27
2018-06-17T16:07:19.418Z,3.13
2018-06-17T16:09:47.464Z,2.70
2018-06-17T16:12:20.725Z,2.40
2018-06-17T16:14:54.121Z,3.30
2018-06-17T16:17:27.416Z,3.13
2018-06-17T16:20:00.698Z,3.70
2018-06-17T16:22:28.739Z,3.23
2018-06-17T16:24:56.793Z,2.60
2018-06-17T16:27:24.815Z,3.30
2018-06-17T16:29:52.856Z,3.10
2018-06-17T16:32:20.881Z,2.43
2018-06-17T16:34:49.005Z,3.80
2018-06-17T16:37:16.993Z,2.50
2018-06-17T16:39:45.018Z,3.17
2018-06-17T16:42:13.091Z,2.77
2018-06-17T16:44:41.111Z,3.20
2018-06-17T16:47:09.370Z,3.00
2018-06-17T16:49:38.164Z,2.97
2018-06-17T16:52:11.944Z,2.33
2018-06-17T16:54:45.455Z,2.83
2018-06-17T16:57:18.712Z,2.53
2018-06-17T16:59:51.822Z,2.77
2018-06-17T17:02:19.973Z,2.97
2018-06-17T17:04:47.992Z,2.60
2018-06-17T17:07:16.047Z,2.57
2018-06-17T17:09:44.070Z,2.90
2018-06-17T17:12:12.106Z,2.77
2018-06-17T17:14:40.228Z,2.60
2018-06-17T17:17:08.970Z,2.30
2018-06-17T17:19:37.963Z,2.50
2018-06-17T17:22:15.851Z,3.30
2018-06-17T17:24:43.878Z,2.17
2018-06-17T17:27:11.943Z,2.33
2018-06-17T17:29:40.164Z,2.93
2018-06-17T17:32:14.038Z,3.03
2018-06-17T17:34:47.544Z,2.40
2018-06-17T17:37:21.066Z,2.60
2018-06-17T17:39:54.561Z,2.70
2018-06-17T17:42:22.639Z,2.80
2018-06-17T17:44:56.191Z,2.03
2018-06-17T17:47:25.785Z,2.20
2018-06-17T17:49:54.188Z,2.90
2018-06-17T17:52:22.273Z,3.33
2018-06-17T17:54:50.428Z,3.57
2018-06-17T17:57:18.571Z,2.87
2018-06-17T17:59:46.832Z,2.17
2018-06-17T18:02:14.946Z,2.57
2018-06-17T18:04:43.084Z,2.50
2018-06-17T18:07:11.216Z,2.93
2018-06-17T18:09:39.871Z,2.40
2018-06-17T18:12:08.812Z,2.90
2018-06-17T18:14:37.527Z,2.60
2018-06-17T18:17:05.710Z,2.23
2018-06-17T18:19:33.926Z,2.70
2018-06-17T18:22:01.991Z,2.40
2018-06-17T18:24:30.089Z,2.70
2018-06-17T18:27:03.302Z,2.47
2018-06-17T18:29:37.017Z,2.87
2018-06-17T18:32:10.753Z,2.50
2018-06-17T18:34:44.713Z,2.20
2018-06-17T18:37:12.833Z,2.20
2018-06-17T18:39:41.275Z,2.80
2018-06-17T18:42:10.132Z,2.83
2018-06-17T18:44:39.204Z,3.03
2018-06-17T18:47:07.754Z,2.53
2018-06-17T18:49:36.664Z,2.33
2018-06-17T18:52:05.053Z,2.60
2018-06-17T18:54:33.163Z,2.87
2018-06-17T18:57:01.803Z,2.33
2018-06-17T18:59:29.878Z,2.63
2018-06-17T19:01:58.010Z,2.17
2018-06-17T19:04:26.073Z,2.73
2018-06-17T19:06:54.181Z,3.07
2018-06-17T19:09:27.465Z,3.33
2018-06-17T19:12:00.833Z,2.53
2018-06-17T19:14:34.148Z,3.10
2018-06-17T19:17:07.862Z,3.10
2018-06-17T19:19:36.044Z,2.97
2018-06-17T19:22:04.193Z,3.47
2018-06-17T19:24:32.237Z,3.70
2018-06-17T19:27:00.282Z,3.07
2018-06-17T19:29:28.388Z,3.00
2018-06-17T19:31:56.466Z,2.80
2018-06-17T19:34:24.485Z,2.97
2018-06-17T19:36:52.537Z,2.97
2018-06-17T19:39:20.611Z,3.43
2018-06-17T19:41:48.677Z,2.60
2018-06-17T19:44:16.783Z,3.23
2018-06-17T19:46:44.883Z,3.40
2018-06-17T19:49:13.019Z,3.33
2018-06-17T19:51:46.751Z,2.93
2018-06-17T19:54:20.169Z,3.00
2018-06-17T19:56:53.485Z,3.23
2018-06-17T19:59:26.931Z,2.60
2018-06-17T20:01:55.037Z,2.70
2018-06-17T20:04:23.189Z,3.03
2018-06-17T20:06:51.324Z,3.13
2018-06-17T20:09:19.795Z,2.67
2018-06-17T20:11:47.913Z,3.00
2018-06-17T20:14:15.988Z,3.30
2018-06-17T20:16:44.199Z,2.67
2018-06-17T20:19:12.772Z,2.90
2018-06-17T20:21:41.730Z,3.27
2018-06-17T20:24:10.463Z,2.80
2018-06-17T20:26:39.175Z,2.90
2018-06-17T20:29:08.045Z,2.50
2018-06-17T20:31:40.943Z,2.50
2018-06-17T20:34:14.942Z,3.30
2018-06-17T20:36:48.671Z,2.70
2018-06-17T20:39:22.574Z,3.10
2018-06-17T20:41:57.346Z,2.93
2018-06-17T20:44:25.997Z,2.83
2018-06-17T20:46:54.328Z,3.00
2018-06-17T20:49:22.811Z,3.30
2018-06-17T20:51:51.093Z,3.30
2018-06-17T20:54:19.303Z,3.20
2018-06-17T20:56:47.478Z,3.00
2018-06-17T20:59:15.542Z,2.80
2018-06-17T21:01:44.074Z,3.00
2018-06-17T21:04:13.096Z,3.07
2018-06-17T21:06:42.123Z,2.57
2018-06-17T21:09:11.725Z,3.17
2018-06-17T21:11:40.307Z,3.27
2018-06-17T21:14:08.524Z,2.80
2018-06-17T21:16:36.583Z,3.20
2018-06-17T21:19:10.460Z,3.40
2018-06-17T21:21:44.066Z,3.30
2018-06-17T21:24:17.963Z,2.87
2018-06-17T21:26:51.252Z,3.40
2018-06-17T21:29:19.389Z,2.27
2018-06-17T21:31:47.408Z,3.07
2018-06-17T21:34:15.545Z,3.13
2018-06-17T21:36:44.083Z,3.87
2018-06-17T21:39:13.497Z,3.20
2018-06-17T21:41:42.466Z,3.03
2018-06-17T21:44:11.396Z,3.07
2018-06-17T21:46:39.569Z,3.20
2018-06-17T21:49:07.709Z,2.80
2018-06-17T21:51:35.782Z,2.90
2018-06-17T21:54:03.789Z,3.03
2018-06-17T21:56:31.896Z,3.40
2018-06-17T21:58:59.927Z,4.13
2018-06-17T22:01:28.021Z,3.40
2018-06-17T22:04:00.323Z,2.90
2018-06-17T22:06:28.373Z,3.00
2018-06-17T22:09:01.566Z,3.80
2018-06-17T22:13:40.036Z,3.20
2018-06-17T22:16:13.746Z,3.67
2018-06-17T22:18:42.510Z,4.07
2018-06-17T22:21:10.791Z,3.10
2018-06-17T22:23:38.976Z,2.93
2018-06-17T22:26:07.024Z,2.97
2018-06-17T22:28:35.063Z,2.93
2018-06-17T22:31:03.133Z,3.10
2018-06-17T22:33:31.161Z,3.37
2018-06-17T22:35:59.213Z,3.30
2018-06-17T22:38:27.233Z,2.90
2018-06-17T22:40:55.321Z,2.40
2018-06-17T22:43:23.345Z,3.60
2018-06-17T22:45:51.424Z,4.10
2018-06-17T22:48:19.450Z,3.07
2018-06-17T22:50:47.505Z,3.13
2018-06-17T22:53:21.147Z,4.50
2018-06-17T22:55:49.192Z,3.03
2018-06-17T22:58:22.509Z,3.70
2018-06-17T23:00:55.974Z,3.60
2018-06-17T23:03:29.288Z,4.10
2018-06-17T23:06:02.833Z,3.23
2018-06-17T23:08:36.104Z,3.43
2018-06-17T23:11:04.176Z,3.30
2018-06-17T23:13:32.240Z,3.40
2018-06-17T23:16:00.292Z,3.87
2018-06-17T23:18:28.338Z,3.07
2018-06-17T23:20:56.411Z,3.17
2018-06-17T23:23:24.463Z,3.20
2018-06-17T23:25:52.520Z,3.20
2018-06-17T23:28:20.604Z,4.80
2018-06-17T23:30:48.702Z,3.80
2018-06-17T23:33:16.985Z,3.37
2018-06-17T23:35:45.963Z,3.23
2018-06-17T23:38:14.819Z,3.53
2018-06-17T23:40:43.300Z,3.47
2018-06-17T23:43:11.544Z,3.57
2018-06-17T23:45:44.253Z,3.43
2018-06-17T23:48:17.643Z,3.33
2018-06-17T23:50:51.487Z,3.10
2018-06-17T23:53:24.919Z,3.50
2018-06-17T23:56:08.691Z,3.10
2018-06-17T23:58:37.712Z,3.17
